This is the latest recevied weather packets stored in our database for station/object N3DOU-1. If no packets are shown the sender has not sent any weather packets the latest 10 day(s).
| Time | Temp. | Humidity | Pressure | Rain* | Wind** | Luminosity | Snow |
|---|---|---|---|---|---|---|---|
| 1778082083 | 17.22° C | 85% | 1010.1 hPa | 0.76 mm | - | - | - |
| 1778081184 | 17.22° C | 83% | 1010.5 hPa | 0.25 mm | - | - | - |
| 1778080285 | 17.22° C | 83% | 1010.3 hPa | 0.25 mm | - | - | - |
| 1778079383 | 17.78° C | 81% | 1010.3 hPa | 0 mm | - | - | - |
| 1778077584 | 18.89° C | 76% | 1010.3 hPa | 0 mm | - | - | - |
| 1778076683 | 19.44° C | 74% | 1010.5 hPa | 0 mm | - | - | - |
| 1778075783 | 18.89° C | 74% | 1010.4 hPa | 0 mm | - | - | - |
| 1778074887 | 19.44° C | 71% | 1010.3 hPa | 0 mm | - | - | - |
| 1778073985 | 20° C | 71% | 1009.9 hPa | 0 mm | - | - | - |
| 1778073084 | 19.44° C | 71% | 1009.9 hPa | 0 mm | - | - | - |
| 1778072183 | 19.44° C | 72% | 1010 hPa | 0 mm | - | - | - |
| 1778070385 | 19.44° C | 72% | 1010.3 hPa | 0 mm | - | - | - |
| 1778069483 | 19.44° C | 72% | 1010.1 hPa | 0 mm | - | - | - |
| 1778068585 | 19.44° C | 73% | 1010 hPa | 0 mm | - | - | - |
| 1778067686 | 19.44° C | 74% | 1010 hPa | 0 mm | - | - | - |
| 1778066785 | 18.89° C | 74% | 1009.8 hPa | 0 mm | - | - | - |
| 1778065886 | 18.89° C | 75% | 1009.7 hPa | 0 mm | - | - | - |
| 1778064984 | 18.33° C | 76% | 1009.7 hPa | 0 mm | - | - | - |
| 1778064085 | 18.33° C | 76% | 1009.7 hPa | 0 mm | - | - | - |
| 1778063183 | 18.89° C | 75% | 1009.6 hPa | 0 mm | - | - | - |
| 1778062284 | 18.89° C | 75% | 1009.7 hPa | 0 mm | - | - | - |
| 1778061384 | 18.89° C | 76% | 1009.7 hPa | 0 mm | - | - | - |
| 1778060483 | 18.89° C | 75% | 1009.6 hPa | 0 mm | - | - | - |
| 1778059583 | 18.89° C | 75% | 1009.7 hPa | 0 mm | - | - | - |
| 1778058685 | 18.89° C | 75% | 1009.9 hPa | 0 mm | - | - | - |
* Rain latest hour (hover to see other rain measurements)
** Current wind speed in m/s (hover to see current wind gust speed)